»·PEaware :: N799BS KPSC-KPUW

N799BS :: KPSC-KPUW

FLIGHT INFORMATION

Flight Status: Arrived
Operator: Privately registered:
United States
More flights under this callsign
Pilot: Bradley C. (23947)
Aircraft: CESSNA 172 SKYHAWK
(C172)
More flights by this aircraft type
Origin: KPSC Tri-Cities
United States
Destination: KPUW Pullman/Moscow Regl
United States
More flights between these airports :: More routes between these airports
Route: +
File this flight plan on PilotEdge
Remarks:
Altitude:
(Current/Filed)
0ft
Speed:
(Current/Filed)
0kts
Departed: 28-Oct-19 01:10 PM
Arrived: 28-Oct-19 01:53 PM
Distance/Time
Traveled:
87nm/0:43
Distance/Time
To Go:
Arrived

Flight Plot

Page will automatically refresh every two minutes.

Flight plan parsing failed; only flown route is shown


Map Options




Map Legend


Flown Route
Filed Route
Departure Airport
Arrival Airport
Navaid (VOR, NDB)
Fix

Horizontal Profiles

Position Reports

Time Latitude Longitude Heading Altitude Ground
Speed
28-Oct-19 13:00 46.263224 -119.104620 303 411ft 0kts
28-Oct-19 13:01 46.263224 -119.104620 303 411ft 0kts
28-Oct-19 13:02 46.263224 -119.104620 303 411ft 0kts
28-Oct-19 13:04 46.263224 -119.104620 303 411ft 0kts
28-Oct-19 13:05 46.263224 -119.104620 303 411ft 0kts
28-Oct-19 13:06 46.263645 -119.106729 291 411ft 6kts
28-Oct-19 13:07 46.266409 -119.108337 339 411ft 26kts
28-Oct-19 13:08 46.269572 -119.110443 315 409ft 0kts
28-Oct-19 13:09 46.270184 -119.111422 299 408ft 13kts
28-Oct-19 13:10 46.259462 -119.127919 223 710ft 81kts
28-Oct-19 13:11 46.242188 -119.150078 198 1416ft 85kts
28-Oct-19 13:12 46.238372 -119.123116 50 2042ft 105kts
28-Oct-19 13:13 46.254409 -119.085218 62 2579ft 111kts
28-Oct-19 13:14 46.267021 -119.043353 66 3114ft 114kts
28-Oct-19 13:15 46.278666 -118.999939 66 3615ft 116kts
28-Oct-19 13:16 46.289979 -118.956282 66 4115ft 115kts
28-Oct-19 13:17 46.301061 -118.913079 65 4614ft 113kts
28-Oct-19 13:18 46.311981 -118.870358 64 5116ft 111kts
28-Oct-19 13:19 46.322626 -118.828592 63 5617ft 109kts
28-Oct-19 13:20 46.333644 -118.785552 63 5870ft 128kts
28-Oct-19 13:21 46.346841 -118.733324 65 5860ft 142kts
28-Oct-19 13:22 46.360726 -118.678302 65 5854ft 145kts
28-Oct-19 13:22 46.372430 -118.631936 66 5849ft 147kts
28-Oct-19 13:23 46.386565 -118.575851 67 5842ft 148kts
28-Oct-19 13:25 46.403179 -118.509715 67 5840ft 149kts
28-Oct-19 13:25 46.415010 -118.462522 67 5840ft 149kts
28-Oct-19 13:26 46.429223 -118.405710 67 5840ft 149kts
28-Oct-19 13:27 46.443197 -118.349719 68 5841ft 149kts
28-Oct-19 13:29 46.460154 -118.281570 68 5571ft 150kts
28-Oct-19 13:29 46.471932 -118.234135 68 5572ft 148kts
28-Oct-19 13:30 46.485972 -118.177457 68 5572ft 148kts
28-Oct-19 13:31 46.499974 -118.120785 68 5572ft 148kts
28-Oct-19 13:32 46.513961 -118.064030 68 5572ft 148kts
28-Oct-19 13:33 46.527962 -118.007072 68 5573ft 148kts
28-Oct-19 13:34 46.541882 -117.950302 68 5573ft 148kts
28-Oct-19 13:35 46.555812 -117.893345 68 5573ft 148kts
28-Oct-19 13:36 46.569688 -117.836447 68 5572ft 148kts
28-Oct-19 13:37 46.583492 -117.779653 67 5562ft 148kts
28-Oct-19 13:38 46.597170 -117.723232 66 5553ft 146kts
28-Oct-19 13:39 46.610679 -117.667439 65 5545ft 144kts
28-Oct-19 13:40 46.623337 -117.614657 65 5275ft 116kts
28-Oct-19 13:41 46.635023 -117.566566 66 4697ft 137kts
28-Oct-19 13:42 46.647940 -117.512708 67 4132ft 139kts
28-Oct-19 13:43 46.660859 -117.458979 67 4158ft 140kts
28-Oct-19 13:44 46.673821 -117.404796 67 4158ft 141kts
28-Oct-19 13:45 46.686846 -117.350218 67 4159ft 141kts
28-Oct-19 13:46 46.703383 -117.298790 56 3978ft 135kts
28-Oct-19 13:47 46.719789 -117.252246 59 3528ft 112kts
28-Oct-19 13:48 46.734866 -117.208712 60 3542ft 134kts
28-Oct-19 13:49 46.747249 -117.163243 65 3537ft 106kts
28-Oct-19 13:50 46.757549 -117.123879 65 3539ft 106kts
28-Oct-19 13:51 46.756376 -117.088614 161 3060ft 88kts
28-Oct-19 13:52 46.745470 -117.103265 251 2551ft 29kts
28-Oct-19 13:53 46.745285 -117.106150 4 2547ft 0kts
28-Oct-19 13:54 46.745285 -117.106150 4 2547ft 0kts
28-Oct-19 13:55 46.746083 -117.102975 72 2553ft 11kts
28-Oct-19 13:56 46.746251 -117.102282 68 2554ft 0kts
28-Oct-19 13:57 46.746251 -117.102282 68 2554ft 0kts
28-Oct-19 13:58 46.746251 -117.102282 68 2554ft 0kts
28-Oct-19 13:59 46.746251 -117.102282 68 2554ft 0kts
28-Oct-19 14:00 46.746274 -117.102203 66 2555ft 9kts
28-Oct-19 14:01 46.742377 -117.113220 244 2637ft 48kts
28-Oct-19 14:02 46.738437 -117.135435 265 3107ft 59kts

Navigation Log

Ident Type
Flight plan parsing failed, navigation log unavailable